Swaledale, Iowa
Current Conditions -  °F | °C
As of 12:53 AM on Sunday 23 Nov 2014 (Local Time) from KMCW Reporting Station
Haze Haze  
Wind Chill: 11°   Ceiling: 700
Heat Index: 11°   Visibility: 6mi
Dew Point: 10°   Wind: 17mph
Humidity: 96%   Direction: 200°SSW
Pressure: 29.56"   Gusts: 24mph
Location:  42.98°N, 93.32°W
Report Text: KMCW 230653Z AUTO 20015G21KT 6SM BR OVC007 11/10 A2956 RMK AO2 SLP010 T01060100
Loading
Personal Weather Stations






























Interactive Weather Map New forecast layout! Learn more

10-Day Weather Forecast

Advertisements
Track Severe Weather on mobile